Time;durP1;ratioP1;P1;durP2;ratioP2;P2;SDS_P1;SDS_P2;PMS_P1;PMS_P2;Temp;Humidity;BMP_temperature;BMP_pressure;BME280_temperature;BME280_humidity;BME280_pressure;Samples;Min_cycle;Max_cycle;Signal;HPM_P1;HPM_P2
2023/03/29 00:00:38;;;;;;;4.55;2.60;;;5.70;99.90;;;;;;4991459;28;20426;-66
2023/03/29 00:03:04;;;;;;;4.20;3.17;;;5.70;99.90;;;;;;4997440;28;20433;-67
2023/03/29 00:05:32;;;;;;;5.80;3.15;;;5.70;99.90;;;;;;4997230;28;20438;-67
2023/03/29 00:08:02;;;;;;;4.97;2.70;;;5.80;99.90;;;;;;4998148;28;20428;-66
2023/03/29 00:10:31;;;;;;;4.95;2.50;;;5.70;99.90;;;;;;5006215;28;20424;-67
2023/03/29 00:12:57;;;;;;;5.20;2.93;;;5.60;99.90;;;;;;5000901;28;20777;-66
2023/03/29 00:15:22;;;;;;;5.22;2.45;;;5.70;99.90;;;;;;4989060;28;21047;-66
2023/03/29 00:17:49;;;;;;;7.53;3.55;;;5.70;99.90;;;;;;4996105;28;20509;-66
2023/03/29 00:20:15;;;;;;;8.07;2.92;;;5.70;99.90;;;;;;4988456;28;20437;-66
2023/03/29 00:22:41;;;;;;;5.68;2.58;;;5.60;99.90;;;;;;4988034;28;20789;-67
2023/03/29 00:25:09;;;;;;;4.25;2.78;;;5.70;99.90;;;;;;5002497;28;20512;-66
2023/03/29 00:27:35;;;;;;;6.15;2.60;;;5.60;99.90;;;;;;5008780;28;20408;-67
2023/03/29 00:30:03;;;;;;;4.63;3.00;;;5.70;99.90;;;;;;4992247;28;20569;-68
2023/03/29 00:32:29;;;;;;;5.78;2.70;;;5.60;99.90;;;;;;5001369;28;21230;-66
2023/03/29 00:34:55;;;;;;;9.27;3.53;;;5.70;99.90;;;;;;4991394;28;20538;-66
2023/03/29 00:37:25;;;;;;;5.93;3.08;;;5.70;99.90;;;;;;5004591;28;20606;-68
2023/03/29 00:39:51;;;;;;;7.45;2.83;;;5.70;99.90;;;;;;4997867;28;20417;-66
2023/03/29 00:42:18;;;;;;;6.88;3.08;;;5.70;99.90;;;;;;5005984;28;20941;-68
2023/03/29 00:44:57;;;;;;;7.30;2.70;;;5.60;99.90;;;;;;4996215;28;20500;-67
2023/03/29 00:47:40;;;;;;;4.00;2.50;;;5.70;99.90;;;;;;5005862;28;20460;-67
2023/03/29 00:50:21;;;;;;;3.90;2.60;;;5.70;99.90;;;;;;4995284;28;20430;-68
2023/03/29 00:53:01;;;;;;;6.50;2.93;;;5.70;99.90;;;;;;5000729;28;20426;-67
2023/03/29 00:55:31;;;;;;;6.25;3.00;;;5.70;99.90;;;;;;5004252;28;20488;-67
2023/03/29 00:57:57;;;;;;;7.32;3.60;;;5.60;99.90;;;;;;5005126;28;20443;-67
2023/03/29 01:00:33;;;;;;;4.70;3.13;;;5.70;99.90;;;;;;4988634;28;20927;-66
2023/03/29 01:03:05;;;;;;;6.20;3.30;;;5.60;99.90;;;;;;4995360;28;20947;-68
2023/03/29 01:05:39;;;;;;;5.95;3.30;;;5.60;99.90;;;;;;4988927;28;20509;-66
2023/03/29 01:08:18;;;;;;;7.40;2.95;;;5.50;99.90;;;;;;4992293;28;20434;-65
2023/03/29 01:10:48;;;;;;;6.28;2.97;;;5.60;99.90;;;;;;4989077;28;20985;-67
2023/03/29 01:13:21;;;;;;;6.75;3.17;;;5.50;99.90;;;;;;4982430;28;20528;-66
2023/03/29 01:15:47;;;;;;;5.70;2.90;;;5.60;99.90;;;;;;4993618;28;20517;-67
2023/03/29 01:18:13;;;;;;;3.60;2.83;;;5.60;99.90;;;;;;4991918;28;20517;-67
2023/03/29 01:20:47;;;;;;;5.57;3.28;;;5.50;99.90;;;;;;4990933;28;20869;-67
2023/03/29 01:23:37;;;;;;;6.05;3.35;;;5.60;99.90;;;;;;5002832;28;20576;-67
2023/03/29 01:26:30;;;;;;;6.05;3.05;;;5.60;99.90;;;;;;5000062;28;20423;-66
2023/03/29 01:29:11;;;;;;;6.47;3.05;;;5.60;99.90;;;;;;4991573;28;20435;-67
2023/03/29 01:32:00;;;;;;;5.35;3.00;;;5.50;99.90;;;;;;5007050;28;20922;-66
2023/03/29 01:34:42;;;;;;;6.20;3.70;;;5.50;99.90;;;;;;4996589;28;20855;-66
2023/03/29 01:37:17;;;;;;;5.00;3.03;;;5.60;99.90;;;;;;5016990;28;20422;-66
2023/03/29 01:39:44;;;;;;;5.47;3.15;;;5.60;99.90;;;;;;5006809;28;20445;-68
2023/03/29 01:42:48;;;;;;;5.20;3.23;;;5.60;99.90;;;;;;4999546;28;20427;-67
2023/03/29 01:45:25;;;;;;;5.35;2.72;;;5.50;99.90;;;;;;4988324;28;20957;-66
2023/03/29 01:48:15;;;;;;;6.63;3.20;;;5.50;99.90;;;;;;5009865;28;20899;-67
2023/03/29 01:50:51;;;;;;;7.82;3.22;;;5.60;99.90;;;;;;4991075;28;20510;-67
2023/03/29 01:53:19;;;;;;;4.85;2.63;;;5.50;99.90;;;;;;4990279;28;20927;-69
2023/03/29 01:55:55;;;;;;;5.00;2.70;;;5.50;99.90;;;;;;5004304;28;20931;-67
2023/03/29 01:58:26;;;;;;;4.80;2.78;;;5.50;99.90;;;;;;4992945;28;20769;-67
2023/03/29 02:00:54;;;;;;;5.67;3.10;;;5.50;99.90;;;;;;5005438;28;20437;-67
2023/03/29 02:03:25;;;;;;;8.18;3.17;;;5.60;99.90;;;;;;4991949;28;20434;-66
2023/03/29 02:05:52;;;;;;;5.82;3.00;;;5.60;99.90;;;;;;5002981;28;20438;-68
2023/03/29 02:08:21;;;;;;;5.57;3.13;;;5.50;99.90;;;;;;4997164;28;20429;-69
2023/03/29 02:10:47;;;;;;;5.63;2.90;;;5.60;99.90;;;;;;4997288;28;20417;-67
2023/03/29 02:13:12;;;;;;;4.57;2.95;;;5.70;99.90;;;;;;4992834;28;20789;-66
2023/03/29 02:15:38;;;;;;;7.18;3.05;;;5.80;99.90;;;;;;4990922;28;20446;-67
2023/03/29 02:18:05;;;;;;;7.40;3.60;;;5.60;99.90;;;;;;4991662;28;20814;-66
2023/03/29 02:20:37;;;;;;;9.05;3.70;;;5.70;99.90;;;;;;4994006;28;20424;-66
2023/03/29 02:23:07;;;;;;;6.18;2.92;;;5.80;99.90;;;;;;4998722;28;20523;-66
2023/03/29 02:25:33;;;;;;;5.27;3.40;;;5.70;99.90;;;;;;4991068;28;20438;-67
2023/03/29 02:28:00;;;;;;;5.80;3.90;;;5.70;99.90;;;;;;4990337;28;20453;-66
2023/03/29 02:30:46;;;;;;;6.10;3.63;;;5.80;99.90;;;;;;4990864;28;20446;-66
2023/03/29 02:33:31;;;;;;;5.45;3.08;;;5.80;99.90;;;;;;4998550;28;20433;-66
2023/03/29 02:36:11;;;;;;;7.53;4.05;;;5.80;99.90;;;;;;5004732;28;20545;-68
2023/03/29 02:38:37;;;;;;;6.45;4.03;;;5.70;99.90;;;;;;5003949;28;20454;-65
2023/03/29 02:41:04;;;;;;;4.30;3.50;;;5.90;99.90;;;;;;4991621;28;20449;-65
2023/03/29 02:43:33;;;;;;;5.78;3.65;;;5.80;99.90;;;;;;4993378;28;20787;-67
2023/03/29 02:46:00;;;;;;;6.97;3.65;;;5.80;99.90;;;;;;4989861;28;20777;-67
2023/03/29 02:48:28;;;;;;;5.32;3.95;;;5.70;99.90;;;;;;5008091;28;20428;-66
2023/03/29 02:50:59;;;;;;;6.65;3.97;;;5.80;99.90;;;;;;5004041;28;20497;-66
2023/03/29 02:53:31;;;;;;;5.97;3.70;;;5.80;99.90;;;;;;5003930;28;20855;-66
2023/03/29 02:55:56;;;;;;;9.17;3.63;;;5.70;99.90;;;;;;5004813;28;20440;-66
2023/03/29 02:58:25;;;;;;;7.10;4.17;;;5.80;99.90;;;;;;5009785;28;20464;-67
2023/03/29 03:00:51;;;;;;;6.80;4.72;;;5.80;99.90;;;;;;4994348;28;20437;-68
2023/03/29 03:03:17;;;;;;;6.88;4.10;;;5.80;99.90;;;;;;4994184;28;20426;-65
2023/03/29 03:05:42;;;;;;;6.47;3.90;;;5.80;99.90;;;;;;4989239;28;20437;-65
2023/03/29 03:08:08;;;;;;;8.55;4.57;;;5.80;99.90;;;;;;4990120;28;20521;-66
2023/03/29 03:10:35;;;;;;;6.78;4.13;;;5.80;99.90;;;;;;4999006;28;20425;-66
2023/03/29 03:13:01;;;;;;;7.78;4.35;;;5.90;99.90;;;;;;4997848;28;20434;-67
2023/03/29 03:15:27;;;;;;;8.18;4.10;;;5.90;99.90;;;;;;4995394;28;20430;-67
2023/03/29 03:17:53;;;;;;;6.10;3.93;;;5.90;99.90;;;;;;5005765;28;20436;-67
2023/03/29 03:20:21;;;;;;;8.00;3.97;;;5.90;99.90;;;;;;5000895;28;20940;-68
2023/03/29 03:22:47;;;;;;;8.52;4.32;;;5.90;99.90;;;;;;4999252;28;20429;-66
2023/03/29 03:25:19;;;;;;;7.53;4.72;;;5.90;99.90;;;;;;4994693;28;20424;-66
2023/03/29 03:27:47;;;;;;;6.95;4.50;;;5.80;99.90;;;;;;4989417;28;20422;-66
2023/03/29 03:30:13;;;;;;;6.90;4.40;;;5.80;99.90;;;;;;5007450;28;20504;-68
2023/03/29 03:32:39;;;;;;;9.95;4.35;;;5.90;99.90;;;;;;4996800;28;20426;-66
2023/03/29 03:35:06;;;;;;;8.03;4.50;;;5.80;99.90;;;;;;4989891;28;20552;-67
2023/03/29 03:37:32;;;;;;;6.10;4.25;;;5.90;99.90;;;;;;5005987;28;20431;-67
2023/03/29 03:39:58;;;;;;;6.80;4.00;;;5.90;99.90;;;;;;5005723;28;20473;-66
2023/03/29 03:42:28;;;;;;;5.70;3.90;;;5.90;99.90;;;;;;5005860;28;20425;-65
2023/03/29 03:44:55;;;;;;;5.43;4.20;;;5.80;99.90;;;;;;4999130;28;20420;-66
2023/03/29 03:47:21;;;;;;;6.43;4.28;;;5.90;99.90;;;;;;4989563;28;20429;-66
2023/03/29 03:49:47;;;;;;;5.73;4.23;;;5.90;99.90;;;;;;4988587;28;20533;-66
2023/03/29 03:52:13;;;;;;;6.35;4.38;;;6.00;99.90;;;;;;4994493;28;20473;-66
2023/03/29 03:54:38;;;;;;;5.75;3.70;;;5.90;99.90;;;;;;5000186;28;20474;-66
2023/03/29 03:57:05;;;;;;;6.72;3.90;;;5.90;99.90;;;;;;5007316;28;20441;-71
2023/03/29 03:59:31;;;;;;;9.10;4.45;;;5.80;99.90;;;;;;5007879;28;20528;-67
2023/03/29 04:01:57;;;;;;;7.28;4.18;;;5.80;99.90;;;;;;4998805;28;20481;-66
2023/03/29 04:04:23;;;;;;;7.40;3.80;;;5.90;99.90;;;;;;4989905;28;20441;-65
2023/03/29 04:06:49;;;;;;;7.75;4.20;;;5.90;99.90;;;;;;4988979;28;20510;-67
2023/03/29 04:09:15;;;;;;;9.55;4.10;;;5.90;99.90;;;;;;5008028;28;20428;-64
2023/03/29 04:11:40;;;;;;;7.75;4.25;;;5.90;99.90;;;;;;4992203;28;20430;-65
2023/03/29 04:14:06;;;;;;;8.82;4.88;;;5.90;99.90;;;;;;4988656;28;20434;-66
2023/03/29 04:16:32;;;;;;;8.15;4.55;;;5.90;99.90;;;;;;4996087;28;20571;-65
2023/03/29 04:18:57;;;;;;;5.68;4.13;;;5.90;99.90;;;;;;4988693;28;20434;-66
2023/03/29 04:21:23;;;;;;;7.05;4.63;;;5.90;99.90;;;;;;5000836;28;20430;-66
2023/03/29 04:23:49;;;;;;;7.30;4.13;;;6.00;99.90;;;;;;4990117;28;20768;-66
2023/03/29 04:26:16;;;;;;;11.57;8.68;;;5.90;99.90;;;;;;4987983;28;20814;-65
2023/03/29 04:28:42;;;;;;;7.13;4.80;;;5.90;99.90;;;;;;4987053;28;20434;-64
2023/03/29 04:31:13;;;;;;;7.95;4.60;;;5.90;99.90;;;;;;4990194;28;20458;-65
2023/03/29 04:33:39;;;;;;;7.32;4.50;;;5.90;99.90;;;;;;4992633;28;20436;-66
2023/03/29 04:36:07;;;;;;;7.80;4.50;;;5.90;99.90;;;;;;4994517;28;20916;-65
2023/03/29 04:38:36;;;;;;;7.32;4.78;;;6.00;99.90;;;;;;4988529;28;20530;-65
2023/03/29 04:41:03;;;;;;;6.72;4.70;;;5.90;99.90;;;;;;4985164;28;20435;-66
2023/03/29 04:43:30;;;;;;;10.20;5.70;;;5.90;99.90;;;;;;4989723;28;20442;-66
2023/03/29 04:45:56;;;;;;;8.27;4.20;;;6.00;99.90;;;;;;5004034;28;21004;-65
2023/03/29 04:48:22;;;;;;;8.43;5.07;;;6.00;99.90;;;;;;4988708;28;20446;-66
2023/03/29 04:50:48;;;;;;;8.77;5.07;;;6.00;99.90;;;;;;4987050;28;20434;-67
2023/03/29 04:53:14;;;;;;;10.85;5.75;;;6.00;99.90;;;;;;4991364;28;20438;-66
2023/03/29 04:55:40;;;;;;;9.88;5.63;;;6.00;99.90;;;;;;4992350;28;20722;-65
2023/03/29 04:58:05;;;;;;;8.73;4.63;;;6.00;99.90;;;;;;4988203;28;20490;-68
2023/03/29 05:00:31;;;;;;;8.00;4.78;;;6.00;99.90;;;;;;4997233;28;20817;-66
2023/03/29 05:02:57;;;;;;;5.97;4.65;;;6.00;99.90;;;;;;4973387;28;20521;-67
2023/03/29 05:05:23;;;;;;;8.73;4.72;;;6.00;99.90;;;;;;4992397;28;20816;-66
2023/03/29 05:07:49;;;;;;;8.25;5.18;;;6.00;99.90;;;;;;4994967;28;20552;-66
2023/03/29 05:10:16;;;;;;;9.65;4.82;;;6.00;99.90;;;;;;4987381;28;20415;-67
2023/03/29 05:12:42;;;;;;;7.57;4.88;;;6.10;99.90;;;;;;4987417;28;20468;-67
2023/03/29 05:15:08;;;;;;;8.50;5.53;;;6.10;99.90;;;;;;5016115;28;20474;-65
2023/03/29 05:17:34;;;;;;;8.02;5.50;;;6.10;99.90;;;;;;4995141;28;20941;-67
2023/03/29 05:20:08;;;;;;;9.15;5.50;;;6.10;99.90;;;;;;5005910;28;20424;-64
2023/03/29 05:22:35;;;;;;;8.23;5.10;;;6.00;99.90;;;;;;5002710;28;20758;-64
2023/03/29 05:25:00;;;;;;;9.10;6.05;;;6.10;99.90;;;;;;4997477;28;20522;-65
2023/03/29 05:27:26;;;;;;;11.67;6.07;;;6.10;99.90;;;;;;4994347;28;20511;-66
2023/03/29 05:29:52;;;;;;;9.77;6.40;;;6.20;99.90;;;;;;4998414;28;20424;-67
2023/03/29 05:32:18;;;;;;;13.50;6.70;;;6.10;99.90;;;;;;4983849;28;20450;-65
2023/03/29 05:34:44;;;;;;;10.35;6.55;;;6.00;99.90;;;;;;5001671;28;20428;-66
2023/03/29 05:37:10;;;;;;;13.30;7.35;;;6.10;99.90;;;;;;4998381;28;20486;-66
2023/03/29 05:39:36;;;;;;;9.43;6.85;;;6.20;99.90;;;;;;5001667;28;20429;-69
2023/03/29 05:42:03;;;;;;;10.00;7.03;;;6.10;99.90;;;;;;5006136;28;20998;-67
2023/03/29 05:44:28;;;;;;;10.93;6.63;;;6.20;99.90;;;;;;5001918;28;20425;-66
2023/03/29 05:46:56;;;;;;;9.27;6.90;;;6.20;99.90;;;;;;4986745;28;20434;-67
2023/03/29 05:49:21;;;;;;;10.05;6.90;;;6.20;99.90;;;;;;4995715;28;21017;-67
2023/03/29 05:51:47;;;;;;;9.77;7.30;;;6.20;99.90;;;;;;5002386;28;20523;-67
2023/03/29 05:54:14;;;;;;;11.53;7.87;;;6.20;99.90;;;;;;4995712;28;20544;-66
2023/03/29 05:56:40;;;;;;;9.45;6.88;;;6.20;99.90;;;;;;4985591;28;20426;-67
2023/03/29 05:59:07;;;;;;;10.53;6.97;;;6.30;99.90;;;;;;4988891;28;20964;-67
2023/03/29 06:01:33;;;;;;;13.13;7.80;;;6.20;99.90;;;;;;5002780;28;20428;-66
2023/03/29 06:03:59;;;;;;;10.23;8.00;;;6.20;99.90;;;;;;5008464;28;20562;-67
2023/03/29 06:06:25;;;;;;;9.75;8.18;;;6.20;99.90;;;;;;5002755;28;20509;-66
2023/03/29 06:08:51;;;;;;;11.68;7.72;;;6.20;99.90;;;;;;4990716;28;20414;-66
2023/03/29 06:11:16;;;;;;;9.23;7.20;;;6.30;99.90;;;;;;4988751;28;20430;-67
2023/03/29 06:13:42;;;;;;;12.73;7.05;;;6.30;99.90;;;;;;4990599;28;20484;-67
2023/03/29 06:16:09;;;;;;;10.35;7.65;;;6.20;99.90;;;;;;5006637;28;20457;-68
2023/03/29 06:18:38;;;;;;;12.45;8.45;;;6.30;99.90;;;;;;4990308;28;20438;-67
2023/03/29 06:21:06;;;;;;;10.57;6.90;;;6.20;99.90;;;;;;4991915;28;20421;-67
2023/03/29 06:23:32;;;;;;;9.80;6.78;;;6.30;99.90;;;;;;5002972;28;20430;-67
2023/03/29 06:25:58;;;;;;;8.43;6.90;;;6.40;99.90;;;;;;5005564;28;20436;-67
2023/03/29 06:28:25;;;;;;;14.02;8.70;;;6.30;99.90;;;;;;4990797;28;20472;-67
2023/03/29 06:30:52;;;;;;;8.75;6.85;;;6.40;99.90;;;;;;5008568;28;20420;-66
2023/03/29 06:33:19;;;;;;;12.00;7.68;;;6.60;99.90;;;;;;5006886;28;20421;-67
2023/03/29 06:35:46;;;;;;;13.10;7.72;;;6.50;99.90;;;;;;5007481;28;20436;-67
2023/03/29 06:38:13;;;;;;;12.75;7.65;;;6.50;99.90;;;;;;4989939;28;20529;-66
2023/03/29 06:40:39;;;;;;;10.32;6.55;;;6.50;99.90;;;;;;4989007;28;20445;-67
2023/03/29 06:43:06;;;;;;;9.87;6.97;;;6.60;99.90;;;;;;5002889;28;20425;-67
2023/03/29 06:45:34;;;;;;;13.52;8.55;;;6.70;99.90;;;;;;5008012;28;20431;-67
2023/03/29 06:48:01;;;;;;;13.48;6.97;;;6.70;99.90;;;;;;4994490;28;20428;-67
2023/03/29 06:50:27;;;;;;;13.20;7.85;;;6.80;99.90;;;;;;5009528;28;20427;-67
2023/03/29 06:52:53;;;;;;;12.82;8.95;;;6.90;99.90;;;;;;5012817;28;20547;-67
2023/03/29 06:55:20;;;;;;;10.70;8.63;;;6.90;99.90;;;;;;4990136;28;20500;-67
2023/03/29 06:57:46;;;;;;;12.70;8.57;;;6.90;99.90;;;;;;4997014;28;20436;-67
2023/03/29 07:00:17;;;;;;;9.63;7.23;;;6.80;99.90;;;;;;4996965;28;20434;-67
2023/03/29 07:02:48;;;;;;;11.43;8.50;;;6.90;99.90;;;;;;4999006;28;20516;-67
2023/03/29 07:05:14;;;;;;;11.85;7.95;;;6.80;99.90;;;;;;5005927;28;20436;-67
2023/03/29 07:08:10;;;;;;;12.43;8.10;;;6.90;99.90;;;;;;4995956;28;20432;-66
2023/03/29 07:10:42;;;;;;;10.75;7.03;;;6.90;99.90;;;;;;5006344;28;20518;-68
2023/03/29 07:13:13;;;;;;;10.43;7.03;;;7.00;99.90;;;;;;4994380;28;20438;-67
2023/03/29 07:15:40;;;;;;;10.23;6.70;;;7.00;99.90;;;;;;4993488;28;20506;-66
2023/03/29 07:18:07;;;;;;;13.23;7.68;;;7.00;99.90;;;;;;4988616;28;20446;-67
2023/03/29 07:20:33;;;;;;;10.48;6.80;;;7.10;99.90;;;;;;4989106;28;20784;-68
2023/03/29 07:22:59;;;;;;;11.90;8.65;;;7.00;99.90;;;;;;4996494;28;20445;-68
2023/03/29 07:25:26;;;;;;;9.97;7.80;;;7.00;99.90;;;;;;5006567;28;20891;-68
2023/03/29 07:27:52;;;;;;;11.85;7.43;;;7.10;99.90;;;;;;4998566;28;20433;-68
2023/03/29 07:30:21;;;;;;;12.05;7.10;;;7.30;99.90;;;;;;4988300;28;20805;-68
2023/03/29 07:32:49;;;;;;;12.27;7.15;;;7.20;99.90;;;;;;4988447;28;20448;-68
2023/03/29 07:35:16;;;;;;;10.02;7.25;;;7.30;99.90;;;;;;5000565;28;20430;-65
2023/03/29 07:37:43;;;;;;;9.53;6.33;;;7.40;99.90;;;;;;5001904;28;20466;-67
2023/03/29 07:40:15;;;;;;;9.52;6.35;;;7.40;99.90;;;;;;5019490;28;20430;-67
2023/03/29 07:42:42;;;;;;;10.93;6.32;;;7.40;99.90;;;;;;4993094;28;20424;-67
2023/03/29 07:45:10;;;;;;;8.75;6.63;;;7.50;99.90;;;;;;4977051;28;20438;-66
2023/03/29 07:47:36;;;;;;;13.40;7.57;;;7.60;99.90;;;;;;4988561;28;20430;-68
2023/03/29 07:50:03;;;;;;;7.32;6.05;;;7.50;99.90;;;;;;4988781;28;20418;-65
2023/03/29 07:52:29;;;;;;;9.18;7.10;;;7.50;99.90;;;;;;5003878;28;20427;-65
2023/03/29 07:54:55;;;;;;;8.40;6.53;;;7.60;99.90;;;;;;5005798;28;20462;-65
2023/03/29 07:57:23;;;;;;;8.15;6.47;;;7.60;99.90;;;;;;4999560;28;20453;-65
2023/03/29 07:59:49;;;;;;;10.75;6.32;;;7.70;99.90;;;;;;4991602;28;20421;-66
2023/03/29 08:02:14;;;;;;;12.95;7.18;;;7.70;99.90;;;;;;4993266;28;20989;-67
2023/03/29 08:04:40;;;;;;;10.35;7.22;;;7.70;99.90;;;;;;5006677;28;20764;-66
2023/03/29 08:07:06;;;;;;;9.82;6.93;;;7.80;99.90;;;;;;4997132;28;20426;-68
2023/03/29 08:09:32;;;;;;;10.03;6.90;;;7.90;99.90;;;;;;4989762;28;20426;-68
2023/03/29 08:11:57;;;;;;;8.73;7.03;;;7.90;99.90;;;;;;5003249;28;20444;-68
2023/03/29 08:14:24;;;;;;;7.88;6.40;;;7.90;99.90;;;;;;5005658;28;20431;-68
2023/03/29 08:16:51;;;;;;;9.60;6.93;;;8.00;99.90;;;;;;5008077;28;20435;-68
2023/03/29 08:19:17;;;;;;;6.72;6.00;;;7.80;99.90;;;;;;5000897;28;20920;-67
2023/03/29 08:21:43;;;;;;;8.60;6.83;;;7.80;99.90;;;;;;4985787;28;20591;-68
2023/03/29 08:24:08;;;;;;;11.23;6.17;;;8.00;99.90;;;;;;4994230;28;20511;-68
2023/03/29 08:26:34;;;;;;;9.50;6.87;;;8.00;99.90;;;;;;5008018;28;20508;-68
2023/03/29 08:29:00;;;;;;;9.97;6.63;;;8.10;99.90;;;;;;5005258;28;20420;-68
2023/03/29 08:31:25;;;;;;;12.17;6.67;;;8.10;99.90;;;;;;5005962;28;20795;-68
2023/03/29 08:33:52;;;;;;;11.73;6.40;;;8.10;99.90;;;;;;4993604;28;20555;-68
2023/03/29 08:36:18;;;;;;;9.90;7.22;;;8.30;99.90;;;;;;4991390;28;20425;-68
2023/03/29 08:38:44;;;;;;;10.38;6.85;;;8.40;99.90;;;;;;4998036;28;20988;-69
2023/03/29 08:41:32;;;;;;;11.70;6.35;;;8.40;99.90;;;;;;5005813;28;20452;-69
2023/03/29 08:44:19;;;;;;;10.07;6.45;;;8.40;99.90;;;;;;4995055;28;20495;-69
2023/03/29 08:46:55;;;;;;;10.85;6.85;;;8.50;99.90;;;;;;5002412;28;20439;-70
2023/03/29 08:49:21;;;;;;;11.32;7.03;;;8.70;99.90;;;;;;4998303;28;20512;-69
2023/03/29 08:51:53;;;;;;;10.40;6.72;;;8.70;99.90;;;;;;5012676;28;20411;-68
2023/03/29 08:54:24;;;;;;;10.90;6.80;;;8.70;99.90;;;;;;4987779;28;20984;-68
2023/03/29 08:56:53;;;;;;;10.85;6.93;;;8.80;99.90;;;;;;4995043;28;20472;-68
2023/03/29 08:59:27;;;;;;;10.05;6.88;;;9.00;99.90;;;;;;5026728;28;20517;-68
2023/03/29 09:01:56;;;;;;;10.10;7.43;;;9.10;99.90;;;;;;5018129;28;20457;-68
2023/03/29 09:04:26;;;;;;;9.43;7.23;;;9.10;99.90;;;;;;4989921;28;20949;-69
2023/03/29 09:06:53;;;;;;;9.52;6.68;;;9.10;99.90;;;;;;4997426;28;20487;-68
2023/03/29 09:09:21;;;;;;;14.98;8.07;;;9.00;99.90;;;;;;5005388;28;20826;-69
2023/03/29 09:12:05;;;;;;;10.38;7.30;;;9.30;99.90;;;;;;4990190;28;20430;-69
2023/03/29 09:14:43;;;;;;;13.75;7.78;;;9.30;99.90;;;;;;4987184;28;20430;-68
2023/03/29 09:17:23;;;;;;;12.27;7.15;;;9.40;99.90;;;;;;5000227;28;20899;-69
2023/03/29 09:20:07;;;;;;;10.87;7.27;;;9.50;99.90;;;;;;5007166;28;20530;-69
2023/03/29 09:22:40;;;;;;;10.73;6.53;;;9.70;99.90;;;;;;5006454;28;20466;-68
2023/03/29 09:25:23;;;;;;;9.60;7.57;;;9.60;99.90;;;;;;4996302;28;20430;-70
2023/03/29 09:28:03;;;;;;;11.45;8.30;;;9.70;99.90;;;;;;4991835;28;20983;-69
2023/03/29 09:30:38;;;;;;;17.40;8.35;;;9.70;99.90;;;;;;4987527;28;20509;-68
2023/03/29 09:33:06;;;;;;;12.00;8.40;;;9.80;99.90;;;;;;4996975;28;20460;-69
2023/03/29 09:35:40;;;;;;;13.48;7.93;;;9.90;99.90;;;;;;5010337;28;20431;-68
2023/03/29 09:38:12;;;;;;;12.87;8.53;;;9.80;99.90;;;;;;4996555;28;20430;-68
2023/03/29 09:41:00;;;;;;;13.15;7.88;;;10.00;99.90;;;;;;4993591;28;20438;-68
2023/03/29 09:43:33;;;;;;;12.15;7.90;;;9.80;99.90;;;;;;4991594;28;20430;-69
2023/03/29 09:46:09;;;;;;;12.48;8.20;;;10.10;99.90;;;;;;5010851;28;20970;-68
2023/03/29 09:48:38;;;;;;;14.00;8.20;;;10.00;99.90;;;;;;5007258;28;20431;-68
2023/03/29 09:51:07;;;;;;;16.15;8.23;;;10.10;99.90;;;;;;4999297;28;20488;-67
2023/03/29 09:53:33;;;;;;;12.68;8.60;;;10.00;99.90;;;;;;5003796;28;20505;-68
2023/03/29 09:56:00;;;;;;;15.05;9.52;;;10.10;99.90;;;;;;4989939;28;20460;-70
2023/03/29 09:58:30;;;;;;;15.65;9.40;;;10.10;99.90;;;;;;4994628;28;20450;-70
2023/03/29 10:01:01;;;;;;;15.07;8.77;;;10.10;99.90;;;;;;5002025;28;20502;-70
2023/03/29 10:03:30;;;;;;;17.38;9.45;;;10.10;99.90;;;;;;5000238;28;20414;-70
2023/03/29 10:06:01;;;;;;;13.48;9.77;;;10.10;99.90;;;;;;4995128;28;20464;-71
2023/03/29 10:08:28;;;;;;;14.25;10.43;;;10.30;99.90;;;;;;4995135;28;20426;-69
2023/03/29 10:10:58;;;;;;;16.07;10.33;;;10.30;99.90;;;;;;4990956;28;20442;-69
2023/03/29 10:13:31;;;;;;;15.57;10.77;;;10.50;99.90;;;;;;4994260;28;20492;-69
2023/03/29 10:16:00;;;;;;;16.27;11.30;;;10.40;99.90;;;;;;5003524;28;20429;-71
2023/03/29 10:18:28;;;;;;;16.50;10.25;;;10.50;99.90;;;;;;5007727;28;20468;-68
2023/03/29 10:21:02;;;;;;;22.20;11.80;;;10.70;99.90;;;;;;4990085;28;20422;-68
2023/03/29 10:23:31;;;;;;;15.63;11.18;;;10.70;99.90;;;;;;4989514;28;20426;-69
2023/03/29 10:25:57;;;;;;;15.48;11.60;;;10.80;99.90;;;;;;5004219;28;20433;-68
2023/03/29 10:28:25;;;;;;;16.52;10.98;;;11.00;99.90;;;;;;4992984;28;20455;-69
2023/03/29 10:30:56;;;;;;;18.63;12.30;;;11.20;99.90;;;;;;4990130;28;20429;-69
2023/03/29 10:33:26;;;;;;;21.33;12.68;;;11.30;99.90;;;;;;4995093;28;20445;-68
2023/03/29 10:35:56;;;;;;;15.75;11.45;;;11.50;99.90;;;;;;4987693;28;20548;-68
2023/03/29 10:38:26;;;;;;;17.13;12.25;;;11.50;99.90;;;;;;4991001;28;20452;-68
2023/03/29 10:40:54;;;;;;;17.00;11.85;;;11.60;99.90;;;;;;4996156;28;20436;-68
2023/03/29 10:43:23;;;;;;;18.20;10.98;;;11.70;99.90;;;;;;5000370;28;20516;-68
2023/03/29 10:46:11;;;;;;;16.95;11.93;;;11.70;99.90;;;;;;4989626;28;20441;-68
2023/03/29 10:48:38;;;;;;;16.70;11.35;;;11.80;99.90;;;;;;5005697;28;20413;-68
2023/03/29 10:51:06;;;;;;;16.95;12.38;;;11.90;99.90;;;;;;4990897;28;20454;-68
2023/03/29 10:53:36;;;;;;;19.48;13.43;;;12.20;99.90;;;;;;5003114;28;20443;-68
2023/03/29 10:56:38;;;;;;;16.23;11.95;;;12.10;99.90;;;;;;4993590;28;20891;-69
2023/03/29 10:59:31;;;;;;;17.88;12.27;;;12.10;99.90;;;;;;4994943;28;20971;-68
2023/03/29 11:02:06;;;;;;;16.17;12.70;;;11.90;99.90;;;;;;4996836;28;20493;-68
2023/03/29 11:04:46;;;;;;;15.37;11.40;;;12.10;99.90;;;;;;4994577;28;20449;-67
2023/03/29 11:07:44;;;;;;;15.70;12.68;;;12.20;99.90;;;;;;5005450;28;20437;-67
2023/03/29 11:10:31;;;;;;;15.35;12.70;;;12.10;99.90;;;;;;5002753;28;20428;-68
2023/03/29 11:13:24;;;;;;;16.88;12.75;;;12.00;99.90;;;;;;5004058;28;20465;-67
2023/03/29 11:16:34;;;;;;;16.47;13.23;;;12.40;99.90;;;;;;4994417;28;20440;-67
2023/03/29 11:19:21;;;;;;;17.17;12.43;;;12.20;99.90;;;;;;4989657;28;20448;-67
2023/03/29 11:22:01;;;;;;;14.32;12.27;;;12.40;99.90;;;;;;5005136;28;20850;-68
2023/03/29 11:24:37;;;;;;;16.83;12.80;;;12.30;99.90;;;;;;4987085;28;20418;-68
2023/03/29 11:27:17;;;;;;;16.92;12.43;;;12.30;99.90;;;;;;4997947;28;20419;-68
2023/03/29 11:29:52;;;;;;;15.68;12.98;;;12.20;99.90;;;;;;4992487;28;20435;-68
2023/03/29 11:32:42;;;;;;;17.92;13.75;;;12.30;99.90;;;;;;5008215;28;20437;-69
2023/03/29 11:35:20;;;;;;;15.00;12.68;;;12.50;99.90;;;;;;5017242;28;20470;-68
2023/03/29 11:37:52;;;;;;;17.30;14.00;;;12.40;99.90;;;;;;4991352;28;20429;-68
2023/03/29 11:40:35;;;;;;;16.60;12.97;;;12.50;99.90;;;;;;4993379;28;20486;-68
2023/03/29 11:43:16;;;;;;;14.70;12.05;;;12.60;99.90;;;;;;5011686;28;20441;-69
2023/03/29 11:45:58;;;;;;;15.07;12.65;;;12.60;99.90;;;;;;5002312;28;20449;-68
2023/03/29 11:48:31;;;;;;;16.92;12.60;;;12.80;99.90;;;;;;4995505;28;20446;-70
2023/03/29 11:51:06;;;;;;;15.82;12.43;;;12.70;99.90;;;;;;5011203;28;20769;-67
2023/03/29 11:53:59;;;;;;;16.30;13.07;;;12.80;99.90;;;;;;5016590;28;20434;-69
2023/03/29 11:57:09;;;;;;;17.30;13.07;;;13.00;99.90;;;;;;5015206;28;20432;-69
2023/03/29 11:59:39;;;;;;;19.67;15.60;;;13.10;99.90;;;;;;5003125;28;20524;-69
2023/03/29 12:02:28;;;;;;;16.73;13.30;;;12.90;99.90;;;;;;4992269;28;20433;-68
2023/03/29 12:04:56;;;;;;;15.93;13.32;;;13.10;99.90;;;;;;4988602;28;20415;-68
2023/03/29 12:07:31;;;;;;;16.95;14.30;;;13.00;99.90;;;;;;4990502;28;20891;-68
2023/03/29 12:10:15;;;;;;;15.15;13.40;;;13.20;99.90;;;;;;5004852;28;20426;-68
2023/03/29 12:12:59;;;;;;;19.13;15.77;;;13.30;99.90;;;;;;5000761;28;20434;-69
2023/03/29 12:15:35;;;;;;;16.00;13.57;;;13.60;99.90;;;;;;4998336;28;20430;-69
2023/03/29 12:18:19;;;;;;;16.00;12.70;;;13.40;99.90;;;;;;5015436;28;20929;-68
2023/03/29 12:20:52;;;;;;;18.30;14.27;;;13.30;99.90;;;;;;5002405;28;20429;-69
2023/03/29 12:23:18;;;;;;;14.20;12.60;;;13.10;99.90;;;;;;4998230;28;20430;-67
2023/03/29 12:25:56;;;;;;;16.95;14.13;;;13.20;99.90;;;;;;5013013;28;20434;-69
2023/03/29 12:28:48;;;;;;;17.60;14.00;;;13.30;99.90;;;;;;5009092;28;20405;-69
2023/03/29 12:31:43;;;;;;;14.98;12.57;;;13.30;99.90;;;;;;5006854;28;20419;-70
2023/03/29 12:34:21;;;;;;;14.73;13.20;;;13.20;99.90;;;;;;5023813;28;20423;-68
2023/03/29 12:37:12;;;;;;;15.27;13.37;;;13.10;99.90;;;;;;4994618;28;20431;-68
2023/03/29 12:39:38;;;;;;;15.07;13.30;;;13.10;99.90;;;;;;5007905;28;20431;-68
2023/03/29 12:42:21;;;;;;;13.20;11.83;;;13.20;99.90;;;;;;5023754;28;20459;-70
2023/03/29 12:44:58;;;;;;;15.18;12.98;;;13.40;99.90;;;;;;4991066;28;20416;-69
2023/03/29 12:47:30;;;;;;;12.60;11.38;;;13.30;99.90;;;;;;4999979;28;20477;-68
2023/03/29 12:49:58;;;;;;;13.27;10.52;;;13.20;99.90;;;;;;5013995;28;20944;-68
2023/03/29 12:52:32;;;;;;;13.05;10.77;;;13.30;99.90;;;;;;4993592;28;20547;-68
2023/03/29 12:55:00;;;;;;;12.18;10.63;;;13.20;99.90;;;;;;5010869;28;20430;-68
2023/03/29 12:57:39;;;;;;;15.88;10.13;;;13.30;99.90;;;;;;5012278;28;20956;-69
2023/03/29 13:00:26;;;;;;;11.95;10.75;;;13.30;99.90;;;;;;4974409;28;20450;-69
2023/03/29 13:03:01;;;;;;;14.23;10.25;;;13.30;99.90;;;;;;5003997;28;20438;-68
2023/03/29 13:05:35;;;;;;;12.98;10.63;;;13.30;99.90;;;;;;5006550;28;20443;-68
2023/03/29 13:08:25;;;;;;;13.07;11.50;;;13.40;99.90;;;;;;5007734;28;20415;-68